Time;durP1;ratioP1;P1;durP2;ratioP2;P2;SDS_P1;SDS_P2;PMS_P1;PMS_P2;Temp;Humidity;BMP_temperature;BMP_pressure;BME280_temperature;BME280_humidity;BME280_pressure;Samples;Min_cycle;Max_cycle;Signal;HPM_P1;HPM_P2
2023/07/01 00:00:28;;;;;;;8.48;6.20;;;18.40;99.90;;;;;;4991345;28;20030;-74
2023/07/01 00:02:54;;;;;;;7.63;5.82;;;18.40;99.90;;;;;;4993049;28;20443;-74
2023/07/01 00:05:20;;;;;;;9.85;7.65;;;18.40;99.90;;;;;;4990666;28;20388;-74
2023/07/01 00:07:47;;;;;;;8.38;6.60;;;18.40;99.90;;;;;;4990299;28;20030;-74
2023/07/01 00:10:12;;;;;;;9.13;6.93;;;18.50;99.90;;;;;;4988642;28;20046;-74
2023/07/01 00:12:38;;;;;;;9.25;6.72;;;18.40;99.90;;;;;;4988617;28;20024;-75
2023/07/01 00:15:04;;;;;;;9.38;6.75;;;18.50;99.90;;;;;;4992048;28;20037;-74
2023/07/01 00:17:30;;;;;;;9.07;6.00;;;18.40;99.90;;;;;;4988271;28;20113;-74
2023/07/01 00:19:56;;;;;;;7.82;5.90;;;18.50;99.90;;;;;;4989568;28;20548;-74
2023/07/01 00:22:21;;;;;;;8.27;6.22;;;18.50;99.90;;;;;;4990194;28;20506;-74
2023/07/01 00:24:47;;;;;;;8.73;6.65;;;18.50;99.90;;;;;;4991474;28;20034;-74
2023/07/01 00:27:13;;;;;;;9.77;7.10;;;18.40;99.90;;;;;;4989876;28;20500;-74
2023/07/01 00:29:38;;;;;;;9.02;5.57;;;18.40;99.90;;;;;;4987204;28;20032;-74
2023/07/01 00:32:05;;;;;;;7.47;5.75;;;18.40;99.90;;;;;;4980362;28;20042;-74
2023/07/01 00:34:31;;;;;;;12.45;9.18;;;18.50;99.90;;;;;;4990745;28;20030;-74
2023/07/01 00:36:57;;;;;;;11.18;9.07;;;18.50;99.90;;;;;;4990095;28;20032;-74
2023/07/01 00:39:22;;;;;;;10.48;9.02;;;18.60;99.90;;;;;;4991698;28;20064;-74
2023/07/01 00:41:56;;;;;;;12.80;10.05;;;18.60;99.90;;;;;;4990447;28;20030;-74
2023/07/01 00:44:22;;;;;;;11.57;8.73;;;18.60;99.90;;;;;;4989685;28;20106;-74
2023/07/01 00:46:47;;;;;;;11.43;8.32;;;18.60;99.90;;;;;;4990407;28;20027;-74
2023/07/01 00:49:13;;;;;;;8.52;5.82;;;18.60;99.90;;;;;;4984748;28;20041;-74
2023/07/01 00:51:39;;;;;;;8.38;6.30;;;18.50;99.90;;;;;;4991331;28;20053;-74
2023/07/01 00:54:06;;;;;;;8.68;6.88;;;18.50;99.90;;;;;;4991193;28;20428;-74
2023/07/01 00:56:31;;;;;;;10.25;7.72;;;18.50;99.90;;;;;;4990670;28;23688;-74
2023/07/01 00:58:58;;;;;;;12.35;7.93;;;18.60;99.90;;;;;;4989232;28;20058;-74
2023/07/01 01:01:34;;;;;;;12.15;8.98;;;18.60;99.90;;;;;;4991157;28;20381;-74
2023/07/01 01:04:17;;;;;;;13.20;9.63;;;18.50;99.90;;;;;;4984250;28;20787;-74
2023/07/01 01:06:48;;;;;;;15.23;10.98;;;18.50;99.90;;;;;;4988217;28;20483;-74
2023/07/01 01:09:13;;;;;;;16.10;8.60;;;18.70;99.90;;;;;;4991370;28;20053;-74
2023/07/01 01:11:45;;;;;;;8.20;7.03;;;18.60;99.90;;;;;;4991041;28;20066;-74
2023/07/01 01:14:14;;;;;;;8.98;6.80;;;18.50;99.90;;;;;;4988624;28;20038;-74
2023/07/01 01:16:41;;;;;;;8.77;5.78;;;18.50;99.90;;;;;;4989495;28;20538;-74
2023/07/01 01:19:21;;;;;;;7.25;5.68;;;18.40;99.90;;;;;;4989128;28;20033;-73
2023/07/01 01:21:55;;;;;;;9.40;6.15;;;18.40;99.90;;;;;;4989073;28;20026;-74
2023/07/01 01:24:21;;;;;;;;;;;18.50;99.90;;;;;;4988580;28;20041;-74
2023/07/01 01:26:51;;;;;;;7.97;5.95;;;18.50;99.90;;;;;;4988839;28;20379;-73
2023/07/01 01:29:17;;;;;;;10.20;6.75;;;18.60;99.90;;;;;;4988065;28;20022;-75
2023/07/01 01:31:43;;;;;;;8.88;6.97;;;18.60;99.90;;;;;;4990596;28;20403;-74
2023/07/01 01:34:08;;;;;;;7.40;5.50;;;18.50;99.90;;;;;;4989195;28;20033;-74
2023/07/01 01:36:55;;;;;;;8.70;6.30;;;18.50;99.90;;;;;;4990014;28;20409;-74
2023/07/01 01:39:26;;;;;;;11.15;8.45;;;18.50;99.90;;;;;;4988833;28;20041;-74
2023/07/01 01:42:15;;;;;;;13.23;9.98;;;18.40;99.90;;;;;;4989227;28;20030;-74
2023/07/01 01:44:47;;;;;;;9.65;8.30;;;18.50;99.90;;;;;;4982355;28;20077;-74
2023/07/01 01:47:19;;;;;;;8.57;6.88;;;18.60;99.90;;;;;;4988145;28;20049;-74
2023/07/01 01:49:47;;;;;;;13.65;8.13;;;18.40;99.90;;;;;;4990493;28;20034;-74
2023/07/01 01:52:16;;;;;;;10.65;7.60;;;18.40;99.90;;;;;;4989499;28;20038;-74
2023/07/01 01:54:45;;;;;;;9.50;6.20;;;18.40;99.90;;;;;;4986697;28;20346;-73
2023/07/01 01:57:12;;;;;;;9.27;6.63;;;18.30;99.90;;;;;;4985401;28;20041;-74
2023/07/01 01:59:38;;;;;;;9.52;6.82;;;18.50;99.90;;;;;;4989388;28;20027;-74
2023/07/01 02:02:04;;;;;;;8.98;6.55;;;18.50;99.90;;;;;;4989874;28;20026;-74
2023/07/01 02:04:29;;;;;;;9.05;6.47;;;18.50;99.90;;;;;;4987410;28;20519;-74
2023/07/01 02:06:55;;;;;;;11.27;7.45;;;18.50;99.90;;;;;;4989608;28;20061;-74
2023/07/01 02:09:21;;;;;;;10.73;6.53;;;18.40;99.90;;;;;;4988436;28;20026;-74
2023/07/01 02:11:47;;;;;;;9.13;6.03;;;18.40;99.90;;;;;;4987846;28;20046;-73
2023/07/01 02:14:13;;;;;;;8.80;5.93;;;18.50;99.90;;;;;;4985693;28;20385;-73
2023/07/01 02:16:38;;;;;;;9.05;6.28;;;18.40;99.90;;;;;;4988028;28;20145;-74
2023/07/01 02:19:04;;;;;;;9.20;7.03;;;18.40;99.90;;;;;;4988270;28;20454;-74
2023/07/01 02:21:31;;;;;;;10.57;7.20;;;18.20;99.90;;;;;;4987899;28;20389;-73
2023/07/01 02:23:59;;;;;;;10.77;7.07;;;18.10;99.90;;;;;;4988429;28;20029;-74
2023/07/01 02:26:25;;;;;;;8.15;6.20;;;18.10;99.90;;;;;;4986408;28;20436;-74
2023/07/01 02:28:51;;;;;;;9.27;6.68;;;18.20;99.90;;;;;;4988851;28;20259;-74
2023/07/01 02:31:18;;;;;;;10.82;7.25;;;18.20;99.90;;;;;;4988932;28;20038;-74
2023/07/01 02:33:49;;;;;;;9.25;6.80;;;18.20;99.90;;;;;;4986665;28;20220;-74
2023/07/01 02:36:15;;;;;;;9.27;7.50;;;18.20;99.90;;;;;;4985258;28;20030;-74
2023/07/01 02:38:41;;;;;;;11.05;7.50;;;18.10;99.90;;;;;;4988070;28;20030;-74
2023/07/01 02:41:07;;;;;;;17.48;8.75;;;18.10;99.90;;;;;;4987202;28;20061;-74
2023/07/01 02:43:32;;;;;;;11.75;8.95;;;18.10;99.90;;;;;;4968115;28;20042;-74
2023/07/01 02:45:58;;;;;;;12.63;9.02;;;18.10;99.90;;;;;;4986964;28;20038;-74
2023/07/01 02:48:24;;;;;;;13.32;8.93;;;18.10;99.90;;;;;;4989755;28;20022;-74
2023/07/01 02:50:50;;;;;;;12.63;9.15;;;18.20;99.90;;;;;;4986059;28;20038;-75
2023/07/01 02:53:17;;;;;;;14.73;10.60;;;18.20;99.90;;;;;;4989097;28;20499;-74
2023/07/01 02:55:44;;;;;;;14.93;9.85;;;18.20;99.90;;;;;;4987890;28;20500;-74
2023/07/01 02:58:09;;;;;;;11.63;9.15;;;18.20;99.90;;;;;;4987065;28;20048;-74
2023/07/01 03:00:35;;;;;;;12.82;9.82;;;18.30;99.90;;;;;;4987736;28;20035;-72
2023/07/01 03:03:07;;;;;;;13.90;9.15;;;18.30;99.90;;;;;;4985761;28;20076;-73
2023/07/01 03:05:36;;;;;;;15.85;10.05;;;18.30;99.90;;;;;;4979497;28;20045;-73
2023/07/01 03:08:03;;;;;;;13.60;9.80;;;18.40;99.90;;;;;;4981707;28;20029;-73
2023/07/01 03:10:28;;;;;;;12.90;9.90;;;18.40;99.90;;;;;;4978626;28;20030;-73
2023/07/01 03:12:55;;;;;;;13.88;8.95;;;18.30;99.90;;;;;;4978463;28;20489;-74
2023/07/01 03:15:20;;;;;;;12.75;10.43;;;18.40;99.90;;;;;;4981693;28;20374;-74
2023/07/01 03:17:49;;;;;;;13.35;11.23;;;18.30;99.90;;;;;;4977489;28;20045;-73
2023/07/01 03:20:24;;;;;;;12.43;10.18;;;18.30;99.90;;;;;;4972651;28;20030;-73
2023/07/01 03:22:50;;;;;;;14.43;11.07;;;18.30;99.90;;;;;;4974940;28;20034;-72
2023/07/01 03:25:16;;;;;;;15.15;12.10;;;18.30;99.90;;;;;;4977622;28;20749;-73
2023/07/01 03:27:42;;;;;;;14.65;11.80;;;18.30;99.90;;;;;;4981598;28;20082;-73
2023/07/01 03:30:13;;;;;;;13.95;12.13;;;18.40;99.90;;;;;;4983208;28;20069;-73
2023/07/01 03:32:44;;;;;;;11.95;10.07;;;18.40;99.90;;;;;;4983451;28;20034;-73
2023/07/01 03:35:13;;;;;;;10.00;6.68;;;18.30;99.90;;;;;;4981653;28;20084;-73
2023/07/01 03:37:40;;;;;;;10.70;9.05;;;18.20;99.90;;;;;;4983996;28;20034;-73
2023/07/01 03:40:12;;;;;;;10.88;7.22;;;18.30;99.90;;;;;;4982744;28;20495;-73
2023/07/01 03:42:42;;;;;;;13.43;10.77;;;18.30;99.90;;;;;;4979800;28;20066;-73
2023/07/01 03:45:10;;;;;;;14.20;12.02;;;18.30;99.90;;;;;;4983361;28;20037;-73
2023/07/01 03:47:37;;;;;;;13.15;11.13;;;18.30;99.90;;;;;;4982230;28;20034;-73
2023/07/01 03:50:02;;;;;;;14.77;12.35;;;18.30;99.90;;;;;;4982461;28;20060;-73
2023/07/01 03:52:28;;;;;;;23.55;15.82;;;18.30;99.90;;;;;;4979952;28;20050;-73
2023/07/01 03:54:54;;;;;;;18.38;15.65;;;18.30;99.90;;;;;;4981559;28;20056;-73
2023/07/01 03:57:19;;;;;;;16.85;13.55;;;18.30;99.90;;;;;;4972500;28;20222;-73
2023/07/01 03:59:45;;;;;;;15.50;13.45;;;18.30;99.90;;;;;;4979207;28;20072;-73
2023/07/01 04:02:11;;;;;;;14.75;12.70;;;18.30;99.90;;;;;;4976302;28;20026;-74
2023/07/01 04:04:37;;;;;;;12.27;9.95;;;18.30;99.90;;;;;;4979954;28;22798;-73
2023/07/01 04:07:05;;;;;;;10.98;7.75;;;18.20;99.90;;;;;;4979133;28;20034;-73
2023/07/01 04:09:31;;;;;;;10.55;8.00;;;18.30;99.90;;;;;;4979934;28;20058;-73
2023/07/01 04:11:57;;;;;;;12.82;8.07;;;18.40;99.90;;;;;;4979827;28;20226;-73
2023/07/01 04:14:23;;;;;;;8.07;6.43;;;18.30;99.90;;;;;;4979593;28;20662;-73
2023/07/01 04:16:49;;;;;;;8.30;6.55;;;18.40;99.90;;;;;;4981198;28;20113;-74
2023/07/01 04:19:15;;;;;;;10.18;6.43;;;18.50;99.90;;;;;;4979821;28;20493;-73
2023/07/01 04:21:41;;;;;;;10.25;7.68;;;18.50;99.90;;;;;;4979152;28;20038;-74
2023/07/01 04:24:07;;;;;;;14.02;9.00;;;18.50;99.90;;;;;;4977045;28;20106;-73
2023/07/01 04:26:36;;;;;;;13.20;10.55;;;18.50;99.90;;;;;;4976792;28;20037;-73
2023/07/01 04:29:02;;;;;;;13.93;10.90;;;18.50;99.90;;;;;;4981613;28;20085;-73
2023/07/01 04:31:28;;;;;;;11.40;9.32;;;18.50;99.90;;;;;;4982893;28;20054;-74
2023/07/01 04:33:55;;;;;;;12.02;10.18;;;18.40;99.90;;;;;;4983906;28;20495;-73
2023/07/01 04:36:21;;;;;;;13.52;10.27;;;18.60;99.90;;;;;;4983206;28;20034;-73
2023/07/01 04:38:47;;;;;;;13.13;10.48;;;18.50;99.90;;;;;;4982121;28;20083;-74
2023/07/01 04:41:13;;;;;;;12.93;10.77;;;18.50;99.90;;;;;;4984353;28;20549;-73
2023/07/01 04:43:40;;;;;;;12.05;10.02;;;18.60;99.90;;;;;;4978347;28;20090;-74
2023/07/01 04:46:05;;;;;;;13.38;10.80;;;18.50;99.90;;;;;;4978919;28;20512;-74
2023/07/01 04:48:31;;;;;;;14.57;11.52;;;18.60;99.90;;;;;;4981250;28;20030;-75
2023/07/01 04:50:57;;;;;;;15.35;11.52;;;18.60;99.90;;;;;;4982774;28;20084;-74
2023/07/01 04:53:23;;;;;;;13.95;11.07;;;18.60;99.90;;;;;;4978073;28;20057;-75
2023/07/01 04:55:49;;;;;;;17.20;12.38;;;18.70;99.90;;;;;;4983406;28;20088;-74
2023/07/01 04:58:14;;;;;;;15.45;12.18;;;18.70;99.90;;;;;;4976077;28;20034;-74
2023/07/01 05:00:40;;;;;;;16.85;11.90;;;18.70;99.90;;;;;;4983142;28;20034;-75
2023/07/01 05:03:06;;;;;;;14.73;11.80;;;18.80;99.90;;;;;;4981246;28;20034;-75
2023/07/01 05:05:31;;;;;;;14.15;12.48;;;18.80;99.90;;;;;;4980064;28;20041;-75
2023/07/01 05:07:57;;;;;;;13.05;11.45;;;18.80;99.90;;;;;;4984342;28;20030;-75
2023/07/01 05:10:23;;;;;;;16.17;11.25;;;18.90;99.90;;;;;;4976559;28;20830;-75
2023/07/01 05:12:49;;;;;;;13.38;9.82;;;19.00;99.90;;;;;;4980995;28;20058;-75
2023/07/01 05:15:15;;;;;;;12.40;8.63;;;19.10;99.90;;;;;;4982746;28;20439;-74
2023/07/01 05:17:42;;;;;;;10.95;9.45;;;19.20;99.90;;;;;;4983257;28;20058;-75
2023/07/01 05:20:09;;;;;;;10.27;7.55;;;19.20;99.90;;;;;;4982046;28;20528;-74
2023/07/01 05:22:35;;;;;;;11.23;7.45;;;19.20;99.90;;;;;;4979432;28;20105;-74
2023/07/01 05:25:01;;;;;;;10.25;7.53;;;19.30;99.90;;;;;;4982159;28;20042;-75
2023/07/01 05:27:27;;;;;;;12.13;10.80;;;19.40;99.90;;;;;;4987483;28;20054;-74
2023/07/01 05:29:53;;;;;;;14.57;12.40;;;19.30;99.90;;;;;;4983381;28;20030;-75
2023/07/01 05:32:19;;;;;;;14.75;13.10;;;19.30;99.90;;;;;;4983488;28;20101;-77
2023/07/01 05:34:44;;;;;;;15.25;12.68;;;19.30;99.90;;;;;;4992600;28;20081;-75
2023/07/01 05:37:10;;;;;;;16.60;11.50;;;19.30;99.90;;;;;;4982802;28;20035;-76
2023/07/01 05:39:36;;;;;;;12.98;11.63;;;19.30;99.90;;;;;;4981072;28;20419;-75
2023/07/01 05:42:02;;;;;;;14.75;9.93;;;19.30;99.90;;;;;;4983676;28;20038;-74
2023/07/01 05:44:28;;;;;;;16.10;12.68;;;19.40;99.90;;;;;;4983717;28;20042;-74
2023/07/01 05:46:54;;;;;;;14.10;12.38;;;19.30;99.90;;;;;;4984260;28;20657;-75
2023/07/01 05:49:19;;;;;;;14.20;11.82;;;19.40;99.90;;;;;;4982372;28;20089;-75
2023/07/01 05:51:46;;;;;;;15.27;11.13;;;19.40;99.90;;;;;;4980607;28;20953;-75
2023/07/01 05:54:11;;;;;;;15.77;13.77;;;19.30;99.90;;;;;;4980638;28;20062;-75
2023/07/01 05:56:38;;;;;;;15.85;13.13;;;19.30;99.90;;;;;;4980605;28;20472;-74
2023/07/01 05:59:03;;;;;;;14.65;12.63;;;19.50;99.90;;;;;;4980417;28;20084;-75
2023/07/01 06:01:29;;;;;;;16.00;13.45;;;19.60;99.90;;;;;;4982522;28;20026;-75
2023/07/01 06:03:55;;;;;;;16.88;14.32;;;19.50;99.90;;;;;;4982558;28;20527;-74
2023/07/01 06:06:21;;;;;;;17.02;13.70;;;19.50;99.90;;;;;;4978369;28;20030;-75
2023/07/01 06:08:47;;;;;;;17.88;15.13;;;19.30;99.90;;;;;;4982683;28;20358;-75
2023/07/01 06:11:14;;;;;;;17.77;14.30;;;19.40;99.90;;;;;;4982449;28;20046;-76
2023/07/01 06:13:45;;;;;;;19.63;14.82;;;19.30;99.90;;;;;;4981773;28;20362;-75
2023/07/01 06:16:11;;;;;;;17.85;15.25;;;19.30;99.90;;;;;;4976258;28;20126;-76
2023/07/01 06:18:37;;;;;;;17.30;14.73;;;19.30;99.90;;;;;;4981692;28;20066;-74
2023/07/01 06:21:06;;;;;;;17.17;14.15;;;19.50;99.90;;;;;;4982491;28;20045;-75
2023/07/01 06:23:32;;;;;;;17.50;14.35;;;19.50;99.90;;;;;;4977449;28;20052;-75
2023/07/01 06:25:58;;;;;;;15.75;13.27;;;19.60;99.90;;;;;;4981838;28;20030;-76
2023/07/01 06:28:24;;;;;;;18.88;14.52;;;19.50;99.90;;;;;;4975921;28;20480;-75
2023/07/01 06:30:50;;;;;;;16.10;14.13;;;19.70;99.90;;;;;;4980101;28;20065;-75
2023/07/01 06:33:15;;;;;;;16.88;14.65;;;19.90;99.90;;;;;;4981006;28;20116;-75
2023/07/01 06:35:43;;;;;;;15.18;13.43;;;20.00;99.90;;;;;;4976060;28;20034;-75
2023/07/01 06:38:09;;;;;;;14.55;12.95;;;20.20;99.90;;;;;;4982247;28;20420;-75
2023/07/01 06:40:35;;;;;;;15.45;12.80;;;20.20;99.90;;;;;;4983676;28;20385;-75
2023/07/01 06:43:02;;;;;;;14.50;11.85;;;20.40;99.90;;;;;;4977426;28;20046;-75
2023/07/01 06:45:29;;;;;;;15.65;12.05;;;20.50;99.90;;;;;;4973723;28;20038;-75
2023/07/01 06:47:55;;;;;;;15.13;12.85;;;20.60;99.90;;;;;;4980529;28;20026;-75
2023/07/01 06:50:20;;;;;;;14.15;11.57;;;20.70;99.90;;;;;;4982760;28;20038;-74
2023/07/01 06:52:46;;;;;;;15.50;13.35;;;20.80;99.90;;;;;;4981498;28;20038;-74
2023/07/01 06:55:15;;;;;;;16.83;14.30;;;20.80;99.90;;;;;;4980851;28;20030;-75
2023/07/01 06:57:43;;;;;;;19.02;15.10;;;20.50;99.90;;;;;;4982625;28;20038;-75
2023/07/01 07:00:11;;;;;;;16.58;13.95;;;20.70;99.90;;;;;;4982022;28;20460;-75
2023/07/01 07:02:37;;;;;;;18.30;15.65;;;20.70;99.90;;;;;;4982883;28;20080;-75
2023/07/01 07:05:04;;;;;;;16.00;14.30;;;20.60;99.90;;;;;;4977988;28;20109;-75
2023/07/01 07:07:30;;;;;;;19.02;15.30;;;20.60;99.90;;;;;;4983787;28;20209;-74
2023/07/01 07:09:56;;;;;;;19.58;16.75;;;20.60;99.90;;;;;;4982851;28;20117;-77
2023/07/01 07:12:21;;;;;;;19.52;14.45;;;20.70;99.90;;;;;;4973388;28;20038;-75
2023/07/01 07:14:47;;;;;;;20.15;17.02;;;20.60;99.90;;;;;;4981298;28;20027;-74
2023/07/01 07:17:13;;;;;;;19.27;17.27;;;20.50;99.90;;;;;;4976347;28;20034;-77
2023/07/01 07:19:38;;;;;;;21.02;17.77;;;20.80;99.90;;;;;;4980635;28;20034;-76
2023/07/01 07:22:05;;;;;;;20.92;16.30;;;20.90;99.90;;;;;;4975826;28;20041;-74
2023/07/01 07:24:31;;;;;;;20.23;17.35;;;21.00;99.90;;;;;;4974213;28;20049;-75
2023/07/01 07:27:00;;;;;;;21.67;19.35;;;20.70;99.90;;;;;;4976984;28;20047;-75
2023/07/01 07:29:29;;;;;;;18.80;16.77;;;20.80;99.90;;;;;;4976224;28;20023;-75
2023/07/01 07:31:56;;;;;;;18.85;16.40;;;21.00;99.90;;;;;;4974501;28;20145;-75
2023/07/01 07:34:22;;;;;;;17.95;15.77;;;21.10;99.90;;;;;;4975625;28;20018;-75
2023/07/01 07:36:48;;;;;;;22.10;17.02;;;20.80;99.90;;;;;;4976662;28;20037;-75
2023/07/01 07:39:14;;;;;;;20.77;16.45;;;20.90;99.90;;;;;;4976483;28;20026;-75
2023/07/01 07:41:44;;;;;;;18.95;16.80;;;21.10;99.90;;;;;;4980491;28;20049;-77
2023/07/01 07:44:10;;;;;;;20.55;17.83;;;21.30;99.90;;;;;;4972551;28;20030;-75
2023/07/01 07:46:37;;;;;;;20.25;16.80;;;21.30;99.90;;;;;;4981031;28;20165;-75
2023/07/01 07:49:03;;;;;;;19.33;16.95;;;21.40;99.90;;;;;;4985964;28;20042;-75
2023/07/01 07:51:29;;;;;;;16.70;14.95;;;21.50;99.90;;;;;;4985469;28;20133;-75
2023/07/01 07:53:55;;;;;;;17.75;14.52;;;21.30;99.90;;;;;;4984016;28;20273;-76
2023/07/01 07:56:20;;;;;;;15.95;13.25;;;21.30;99.90;;;;;;4984972;28;20042;-75
2023/07/01 07:58:46;;;;;;;16.70;14.60;;;21.40;99.90;;;;;;4985307;28;20027;-75
2023/07/01 08:01:12;;;;;;;15.95;14.13;;;21.30;99.90;;;;;;4976064;28;20121;-75
2023/07/01 08:03:39;;;;;;;16.17;14.00;;;21.50;99.90;;;;;;4985534;28;20034;-74
2023/07/01 08:06:04;;;;;;;17.63;14.23;;;21.50;99.90;;;;;;4989344;28;20030;-75
2023/07/01 08:08:30;;;;;;;17.40;14.77;;;21.50;99.90;;;;;;4989127;28;20023;-75
2023/07/01 08:10:58;;;;;;;15.27;13.77;;;21.30;99.90;;;;;;4981168;28;20578;-76
2023/07/01 08:13:24;;;;;;;12.80;11.40;;;21.40;99.90;;;;;;4981770;28;20023;-76
2023/07/01 08:15:50;;;;;;;11.48;10.23;;;21.50;99.90;;;;;;4987848;28;20093;-75
2023/07/01 08:18:16;;;;;;;15.50;11.02;;;21.60;99.90;;;;;;4989256;28;20034;-75
2023/07/01 08:20:43;;;;;;;13.90;11.90;;;21.60;99.90;;;;;;4988231;28;20026;-75
2023/07/01 08:23:09;;;;;;;15.57;12.13;;;21.80;99.90;;;;;;4987553;28;20578;-74
2023/07/01 08:25:34;;;;;;;15.60;13.85;;;21.80;99.90;;;;;;4989947;28;20038;-75
2023/07/01 08:28:00;;;;;;;15.95;13.60;;;21.60;99.90;;;;;;4991978;28;20050;-75
2023/07/01 08:30:26;;;;;;;16.40;14.20;;;21.60;99.90;;;;;;4992069;28;20028;-75
2023/07/01 08:32:52;;;;;;;12.85;11.55;;;21.70;99.90;;;;;;4992090;28;20046;-75
2023/07/01 08:35:17;;;;;;;15.98;12.27;;;21.80;99.90;;;;;;4991373;28;20112;-75
2023/07/01 08:37:43;;;;;;;15.75;12.85;;;21.80;99.90;;;;;;4990904;28;20477;-75
2023/07/01 08:40:09;;;;;;;15.82;12.75;;;22.00;99.90;;;;;;4991915;28;20045;-76
2023/07/01 08:42:50;;;;;;;16.05;13.57;;;22.10;99.90;;;;;;4991591;28;20491;-75
2023/07/01 08:45:20;;;;;;;12.68;11.05;;;22.10;99.90;;;;;;4989584;28;20472;-75
2023/07/01 08:47:46;;;;;;;14.23;11.38;;;21.90;99.90;;;;;;4981749;28;20035;-74
2023/07/01 08:50:18;;;;;;;15.25;11.13;;;22.10;99.90;;;;;;4983700;28;20030;-76
2023/07/01 08:52:46;;;;;;;13.70;10.50;;;22.10;99.90;;;;;;4983296;28;20141;-75
2023/07/01 08:55:12;;;;;;;12.05;10.75;;;22.20;99.90;;;;;;4983144;28;20046;-75
2023/07/01 08:57:39;;;;;;;11.82;10.60;;;22.50;99.90;;;;;;4983818;28;20056;-75
2023/07/01 09:00:10;;;;;;;13.50;11.15;;;22.40;99.90;;;;;;4983695;28;20097;-76
2023/07/01 09:02:36;;;;;;;11.90;9.60;;;22.80;99.90;;;;;;4981642;28;20069;-77
2023/07/01 09:05:03;;;;;;;11.43;8.77;;;22.20;99.90;;;;;;4982547;28;20026;-75
2023/07/01 09:07:29;;;;;;;10.55;9.45;;;22.60;99.90;;;;;;4981684;28;20035;-74
2023/07/01 09:09:56;;;;;;;12.40;9.98;;;22.80;99.90;;;;;;4981846;28;20057;-74
2023/07/01 09:12:28;;;;;;;10.13;9.02;;;22.90;99.90;;;;;;4982832;28;20034;-74
2023/07/01 09:14:58;;;;;;;10.95;9.82;;;22.60;99.90;;;;;;4982502;28;20061;-76
2023/07/01 09:17:31;;;;;;;14.27;9.70;;;22.70;99.90;;;;;;4979400;28;20035;-75
2023/07/01 09:20:05;;;;;;;10.63;9.05;;;22.70;99.90;;;;;;4983246;28;20023;-75
2023/07/01 09:22:33;;;;;;;12.07;10.02;;;22.90;99.90;;;;;;4980568;28;20026;-75
2023/07/01 09:24:59;;;;;;;12.10;10.50;;;23.20;99.90;;;;;;4979496;28;20042;-76
2023/07/01 09:27:26;;;;;;;15.82;11.57;;;23.40;99.90;;;;;;4980668;28;20093;-75
2023/07/01 09:29:52;;;;;;;10.52;8.50;;;23.20;99.90;;;;;;4981275;28;20041;-75
2023/07/01 09:32:28;;;;;;;10.75;8.82;;;23.40;99.90;;;;;;4983112;28;20038;-75
2023/07/01 09:34:58;;;;;;;11.15;9.93;;;23.60;99.90;;;;;;4980330;28;20036;-75
2023/07/01 09:37:25;;;;;;;15.82;9.63;;;23.40;99.90;;;;;;4981011;28;20029;-74
2023/07/01 09:39:50;;;;;;;12.07;9.52;;;23.50;99.90;;;;;;4984052;28;20057;-75
2023/07/01 09:42:18;;;;;;;9.38;7.78;;;24.00;99.90;;;;;;4980587;28;20109;-75
2023/07/01 09:45:03;;;;;;;13.50;9.77;;;24.30;99.90;;;;;;4985695;28;20129;-75
2023/07/01 09:47:29;;;;;;;10.02;8.90;;;24.70;99.90;;;;;;4981865;28;20169;-74
2023/07/01 09:49:55;;;;;;;11.43;8.00;;;25.00;99.90;;;;;;4979543;28;20109;-75
2023/07/01 09:52:36;;;;;;;8.63;7.20;;;25.10;99.90;;;;;;4981491;28;20432;-75
2023/07/01 09:55:02;;;;;;;11.27;8.25;;;25.00;99.90;;;;;;4982811;28;20026;-75
2023/07/01 09:57:29;;;;;;;9.93;7.35;;;24.60;99.90;;;;;;4982000;28;20133;-75
2023/07/01 09:59:56;;;;;;;11.23;10.02;;;24.60;99.90;;;;;;4980586;28;20073;-75
2023/07/01 10:02:22;;;;;;;12.85;9.60;;;24.60;99.90;;;;;;4982747;28;20019;-75
2023/07/01 10:04:48;;;;;;;13.45;8.82;;;24.40;99.90;;;;;;4982982;28;20649;-75
2023/07/01 10:07:14;;;;;;;9.88;7.50;;;24.30;99.90;;;;;;4981105;28;20030;-74
2023/07/01 10:09:44;;;;;;;10.35;7.07;;;24.50;99.90;;;;;;4981250;28;20030;-75
2023/07/01 10:12:11;;;;;;;9.27;7.75;;;24.30;99.90;;;;;;4982283;28;20034;-75
2023/07/01 10:14:38;;;;;;;9.63;8.27;;;24.00;99.90;;;;;;4977459;28;20125;-74
2023/07/01 10:17:04;;;;;;;9.50;8.30;;;24.50;99.90;;;;;;4977855;28;20026;-75
2023/07/01 10:19:31;;;;;;;9.95;7.70;;;24.50;99.90;;;;;;4976848;28;20141;-74
2023/07/01 10:22:16;;;;;;;8.95;6.90;;;24.60;99.90;;;;;;4976323;28;20030;-75
2023/07/01 10:24:42;;;;;;;13.23;6.43;;;24.80;99.90;;;;;;4979060;28;20121;-76
2023/07/01 10:27:08;;;;;;;9.65;6.63;;;25.00;99.90;;;;;;4979247;28;20041;-74
2023/07/01 10:29:34;;;;;;;7.85;6.20;;;25.00;99.90;;;;;;4977025;28;20034;-74
2023/07/01 10:32:08;;;;;;;9.68;6.00;;;24.60;99.90;;;;;;4976121;28;20042;-74
2023/07/01 10:34:52;;;;;;;6.70;5.07;;;24.50;99.90;;;;;;4983483;28;20384;-75
2023/07/01 10:37:23;;;;;;;9.35;6.25;;;24.90;99.90;;;;;;4981238;28;20041;-74
2023/07/01 10:39:49;;;;;;;7.70;6.20;;;25.00;99.90;;;;;;4978672;28;20069;-75
2023/07/01 10:42:34;;;;;;;7.57;5.90;;;25.00;99.90;;;;;;4978265;28;20077;-74
2023/07/01 10:45:12;;;;;;;6.85;5.30;;;24.90;99.90;;;;;;4982250;28;20440;-74
2023/07/01 10:47:43;;;;;;;8.57;6.57;;;24.70;99.90;;;;;;4981281;28;20041;-76
2023/07/01 10:50:13;;;;;;;8.52;6.70;;;24.40;99.90;;;;;;4979383;28;20026;-75
2023/07/01 10:52:57;;;;;;;10.27;6.32;;;24.60;99.90;;;;;;4979924;28;20353;-75
2023/07/01 10:55:39;;;;;;;7.47;6.03;;;24.40;99.90;;;;;;4978714;28;20044;-74
2023/07/01 10:58:18;;;;;;;6.45;5.45;;;24.10;99.90;;;;;;4979120;28;20117;-73
2023/07/01 11:00:44;;;;;;;8.73;6.28;;;24.20;99.90;;;;;;4975431;28;20480;-74
2023/07/01 11:03:33;;;;;;;7.65;6.60;;;24.30;99.90;;;;;;4974800;28;20030;-75
2023/07/01 11:06:06;;;;;;;9.27;6.78;;;24.40;99.90;;;;;;4979569;28;20539;-75
2023/07/01 11:08:46;;;;;;;9.18;6.22;;;24.50;99.90;;;;;;4978870;28;20109;-75
2023/07/01 11:11:22;;;;;;;8.50;6.18;;;24.50;99.90;;;;;;4978632;28;20038;-75
2023/07/01 11:14:14;;;;;;;7.70;6.10;;;24.40;99.90;;;;;;4980046;28;20500;-75
2023/07/01 11:16:40;;;;;;;7.68;5.45;;;24.60;99.90;;;;;;4981321;28;20069;-75
2023/07/01 11:19:09;;;;;;;8.50;6.30;;;24.90;99.90;;;;;;4977164;28;20026;-75
2023/07/01 11:21:35;;;;;;;7.60;5.82;;;25.00;99.90;;;;;;4982842;28;20034;-75
2023/07/01 11:24:04;;;;;;;6.25;5.03;;;25.10;99.90;;;;;;4979189;28;20487;-76
2023/07/01 11:26:33;;;;;;;7.53;5.95;;;25.20;99.90;;;;;;4979419;28;20030;-75
2023/07/01 11:28:59;;;;;;;8.82;6.28;;;25.40;99.90;;;;;;4980552;28;20084;-75
2023/07/01 11:31:29;;;;;;;6.45;5.07;;;25.50;99.90;;;;;;4981646;28;20042;-75
2023/07/01 11:33:56;;;;;;;6.88;5.25;;;25.40;99.90;;;;;;4979341;28;20065;-75
2023/07/01 11:36:35;;;;;;;8.25;5.40;;;25.10;99.90;;;;;;4979204;28;20133;-75
2023/07/01 11:39:15;;;;;;;6.68;5.53;;;24.90;99.90;;;;;;4977901;28;20039;-74
2023/07/01 11:42:01;;;;;;;8.13;6.03;;;24.90;99.90;;;;;;4981632;28;20022;-74
2023/07/01 11:44:29;;;;;;;8.23;5.78;;;24.80;99.90;;;;;;4980818;28;20027;-75
2023/07/01 11:46:55;;;;;;;7.30;5.60;;;24.90;99.90;;;;;;4978902;28;20050;-75
2023/07/01 11:49:30;;;;;;;10.50;6.38;;;24.70;99.90;;;;;;4979605;28;20038;-74
2023/07/01 11:52:04;;;;;;;9.07;6.28;;;25.10;99.90;;;;;;4980399;28;20034;-75
2023/07/01 11:54:38;;;;;;;7.45;5.35;;;25.40;99.90;;;;;;4976086;28;20120;-75
2023/07/01 11:57:12;;;;;;;6.75;4.97;;;25.50;99.90;;;;;;4977123;28;20026;-74
2023/07/01 11:59:39;;;;;;;8.10;5.40;;;25.70;99.90;;;;;;4979827;28;20093;-74
2023/07/01 12:02:05;;;;;;;7.35;5.15;;;25.80;99.60;;;;;;4979398;28;20030;-75
2023/07/01 12:04:33;;;;;;;6.43;4.68;;;25.90;99.80;;;;;;4980793;28;20037;-75
2023/07/01 12:07:15;;;;;;;6.38;4.95;;;25.90;99.30;;;;;;4978487;28;20519;-75
2023/07/01 12:09:44;;;;;;;5.80;4.60;;;26.20;99.60;;;;;;4978533;28;20089;-74
2023/07/01 12:12:13;;;;;;;6.43;4.50;;;26.10;99.50;;;;;;4980767;28;20030;-74
2023/07/01 12:14:39;;;;;;;7.95;4.57;;;26.20;99.20;;;;;;4976689;28;20034;-74
2023/07/01 12:17:05;;;;;;;7.22;4.80;;;26.70;98.00;;;;;;4980291;28;20088;-75
2023/07/01 12:19:31;;;;;;;6.20;3.78;;;26.80;97.70;;;;;;4977163;28;20030;-75
2023/07/01 12:21:59;;;;;;;5.78;4.25;;;26.50;98.00;;;;;;4981337;28;20557;-75
2023/07/01 12:24:32;;;;;;;6.55;4.00;;;26.40;98.10;;;;;;4979870;28;20042;-75
2023/07/01 12:27:00;;;;;;;6.70;4.88;;;26.30;98.00;;;;;;4977517;28;20027;-75
2023/07/01 12:29:26;;;;;;;6.30;4.35;;;26.00;98.20;;;;;;4978803;28;20027;-75
2023/07/01 12:31:57;;;;;;;7.25;4.63;;;26.30;98.20;;;;;;4981457;28;20043;-74
2023/07/01 12:34:24;;;;;;;7.50;4.03;;;26.60;97.90;;;;;;4979566;28;20125;-75
2023/07/01 12:36:49;;;;;;;5.93;4.03;;;26.40;97.90;;;;;;4979374;28;20030;-74
2023/07/01 12:39:19;;;;;;;6.20;4.50;;;26.30;98.10;;;;;;4980995;28;20034;-76